sensor_id;sensor_type;location;lat;lon;timestamp;pressure;altitude;pressure_sealevel;temperature;humidity
47220;BME280;32961;51.936;4.788;2023-02-28T00:01:28;103159.97;;;0.86;80.91
47220;BME280;32961;51.936;4.788;2023-02-28T00:03:57;103154.69;;;0.83;80.85
47220;BME280;32961;51.936;4.788;2023-02-28T00:06:26;103162.84;;;0.75;81.06
47220;BME280;32961;51.936;4.788;2023-02-28T00:08:54;103159.34;;;0.70;80.87
47220;BME280;32961;51.936;4.788;2023-02-28T00:11:22;103158.50;;;0.68;82.04
47220;BME280;32961;51.936;4.788;2023-02-28T00:13:50;103157.66;;;0.62;82.37
47220;BME280;32961;51.936;4.788;2023-02-28T00:16:19;103161.25;;;0.61;82.53
47220;BME280;32961;51.936;4.788;2023-02-28T00:18:48;103171.97;;;0.60;82.49
47220;BME280;32961;51.936;4.788;2023-02-28T00:21:16;103183.56;;;0.60;82.32
47220;BME280;32961;51.936;4.788;2023-02-28T00:23:46;103177.31;;;0.60;82.94
47220;BME280;32961;51.936;4.788;2023-02-28T00:26:14;103179.09;;;0.61;83.53
47220;BME280;32961;51.936;4.788;2023-02-28T00:28:42;103183.56;;;0.59;83.88
47220;BME280;32961;51.936;4.788;2023-02-28T00:31:09;103169.28;;;0.60;83.45
47220;BME280;32961;51.936;4.788;2023-02-28T00:33:37;103178.28;;;0.56;84.44
47220;BME280;32961;51.936;4.788;2023-02-28T00:36:07;103171.22;;;0.52;85.12
47220;BME280;32961;51.936;4.788;2023-02-28T00:38:35;103179.22;;;0.53;84.44
47220;BME280;32961;51.936;4.788;2023-02-28T00:41:05;103176.50;;;0.55;85.16
47220;BME280;32961;51.936;4.788;2023-02-28T00:43:34;103175.53;;;0.60;85.61
47220;BME280;32961;51.936;4.788;2023-02-28T00:46:03;103168.38;;;0.61;85.89
47220;BME280;32961;51.936;4.788;2023-02-28T00:48:31;103172.88;;;0.60;86.38
47220;BME280;32961;51.936;4.788;2023-02-28T00:50:59;103180.00;;;0.61;86.92
47220;BME280;32961;51.936;4.788;2023-02-28T00:53:27;103163.91;;;0.63;87.30
47220;BME280;32961;51.936;4.788;2023-02-28T00:55:55;103171.91;;;0.64;87.01
47220;BME280;32961;51.936;4.788;2023-02-28T00:58:24;103169.16;;;0.69;86.96
47220;BME280;32961;51.936;4.788;2023-02-28T01:00:52;103170.09;;;0.67;87.79
47220;BME280;32961;51.936;4.788;2023-02-28T01:03:21;103168.28;;;0.67;88.38
47220;BME280;32961;51.936;4.788;2023-02-28T01:05:50;103169.13;;;0.71;87.73
47220;BME280;32961;51.936;4.788;2023-02-28T01:08:19;103166.44;;;0.72;88.79
47220;BME280;32961;51.936;4.788;2023-02-28T01:10:47;103174.44;;;0.75;88.27
47220;BME280;32961;51.936;4.788;2023-02-28T01:13:16;103172.56;;;0.80;87.82
47220;BME280;32961;51.936;4.788;2023-02-28T01:15:50;103172.53;;;0.84;88.68
47220;BME280;32961;51.936;4.788;2023-02-28T01:18:19;103173.38;;;0.84;90.07
47220;BME280;32961;51.936;4.788;2023-02-28T01:20:47;103172.44;;;0.87;89.19
47220;BME280;32961;51.936;4.788;2023-02-28T01:23:15;103163.59;;;0.85;90.81
47220;BME280;32961;51.936;4.788;2023-02-28T01:25:42;103175.09;;;0.88;90.67
47220;BME280;32961;51.936;4.788;2023-02-28T01:28:10;103171.53;;;0.91;91.02
47220;BME280;32961;51.936;4.788;2023-02-28T01:30:38;103172.34;;;0.94;90.17
47220;BME280;32961;51.936;4.788;2023-02-28T01:33:08;103166.06;;;0.95;90.52
47220;BME280;32961;51.936;4.788;2023-02-28T01:35:36;103158.84;;;1.02;90.29
47220;BME280;32961;51.936;4.788;2023-02-28T01:38:03;103161.50;;;1.02;90.56
47220;BME280;32961;51.936;4.788;2023-02-28T01:40:47;103161.44;;;1.05;90.36
47220;BME280;32961;51.936;4.788;2023-02-28T01:43:20;103168.59;;;1.05;90.47
47220;BME280;32961;51.936;4.788;2023-02-28T01:45:48;103164.13;;;1.07;90.98
47220;BME280;32961;51.936;4.788;2023-02-28T01:48:18;103159.59;;;1.10;91.07
47220;BME280;32961;51.936;4.788;2023-02-28T01:50:47;103150.63;;;1.11;90.08
47220;BME280;32961;51.936;4.788;2023-02-28T01:53:18;103148.84;;;1.12;91.44
47220;BME280;32961;51.936;4.788;2023-02-28T01:55:50;103148.78;;;1.15;90.77
47220;BME280;32961;51.936;4.788;2023-02-28T01:58:20;103147.88;;;1.16;91.04
47220;BME280;32961;51.936;4.788;2023-02-28T02:00:48;103145.16;;;1.18;91.43
47220;BME280;32961;51.936;4.788;2023-02-28T02:03:19;103146.03;;;1.20;92.02
47220;BME280;32961;51.936;4.788;2023-02-28T02:05:47;103137.97;;;1.23;91.57
47220;BME280;32961;51.936;4.788;2023-02-28T02:08:17;103135.19;;;1.26;91.96
47220;BME280;32961;51.936;4.788;2023-02-28T02:10:48;103131.66;;;1.25;92.53
47220;BME280;32961;51.936;4.788;2023-02-28T02:13:26;103135.19;;;1.26;92.65
47220;BME280;32961;51.936;4.788;2023-02-28T02:16:04;103128.91;;;1.30;92.90
47220;BME280;32961;51.936;4.788;2023-02-28T02:18:40;103136.91;;;1.32;92.57
47220;BME280;32961;51.936;4.788;2023-02-28T02:21:21;103136.91;;;1.32;92.93
47220;BME280;32961;51.936;4.788;2023-02-28T02:27:16;103128.72;;;1.39;92.39
47220;BME280;32961;51.936;4.788;2023-02-28T02:30:08;103132.28;;;1.40;91.97
47220;BME280;32961;51.936;4.788;2023-02-28T02:35:43;103129.53;;;1.43;92.18
47220;BME280;32961;51.936;4.788;2023-02-28T02:38:18;103125.09;;;1.43;93.09
47220;BME280;32961;51.936;4.788;2023-02-28T02:40:58;103123.25;;;1.46;93.25
47220;BME280;32961;51.936;4.788;2023-02-28T02:43:31;103113.38;;;1.48;92.45
47220;BME280;32961;51.936;4.788;2023-02-28T02:46:04;103119.66;;;1.47;93.07
47220;BME280;32961;51.936;4.788;2023-02-28T02:48:35;103116.06;;;1.48;93.22
47220;BME280;32961;51.936;4.788;2023-02-28T02:51:09;103124.97;;;1.50;92.76
47220;BME280;32961;51.936;4.788;2023-02-28T02:53:42;103120.44;;;1.52;93.12
47220;BME280;32961;51.936;4.788;2023-02-28T02:56:13;103116.84;;;1.53;93.43
47220;BME280;32961;51.936;4.788;2023-02-28T02:58:43;103130.22;;;1.54;93.35
47220;BME280;32961;51.936;4.788;2023-02-28T03:01:15;103126.59;;;1.57;93.23
47220;BME280;32961;51.936;4.788;2023-02-28T03:03:56;103130.13;;;1.59;93.07
47220;BME280;32961;51.936;4.788;2023-02-28T03:06:26;103143.47;;;1.62;93.30
47220;BME280;32961;51.936;4.788;2023-02-28T03:08:54;103134.50;;;1.65;93.52
47220;BME280;32961;51.936;4.788;2023-02-28T03:11:22;103139.84;;;1.65;92.97
47220;BME280;32961;51.936;4.788;2023-02-28T03:14:17;103138.09;;;1.64;93.96
47220;BME280;32961;51.936;4.788;2023-02-28T03:16:59;103136.31;;;1.63;94.59
47220;BME280;32961;51.936;4.788;2023-02-28T03:19:47;103138.84;;;1.70;93.91
47220;BME280;32961;51.936;4.788;2023-02-28T03:22:33;103134.41;;;1.69;93.22
47220;BME280;32961;51.936;4.788;2023-02-28T03:25:08;103137.91;;;1.73;93.69
47220;BME280;32961;51.936;4.788;2023-02-28T03:27:42;103136.03;;;1.76;93.37
47220;BME280;32961;51.936;4.788;2023-02-28T03:30:23;103137.81;;;1.77;93.12
47220;BME280;32961;51.936;4.788;2023-02-28T03:32:55;103135.16;;;1.76;93.30
47220;BME280;32961;51.936;4.788;2023-02-28T03:35:26;103135.13;;;1.77;93.97
47220;BME280;32961;51.936;4.788;2023-02-28T03:38:00;103131.47;;;1.80;93.56
47220;BME280;32961;51.936;4.788;2023-02-28T03:40:33;103136.84;;;1.82;93.96
47220;BME280;32961;51.936;4.788;2023-02-28T03:43:04;103140.34;;;1.84;94.00
47220;BME280;32961;51.936;4.788;2023-02-28T03:45:37;103137.66;;;1.85;93.41
47220;BME280;32961;51.936;4.788;2023-02-28T03:48:09;103131.34;;;1.88;93.59
47220;BME280;32961;51.936;4.788;2023-02-28T03:50:41;103130.44;;;1.87;94.10
47220;BME280;32961;51.936;4.788;2023-02-28T03:53:14;103134.00;;;1.89;93.16
47220;BME280;32961;51.936;4.788;2023-02-28T03:55:44;103135.81;;;1.89;93.59
47220;BME280;32961;51.936;4.788;2023-02-28T03:58:16;103124.91;;;1.97;93.37
47220;BME280;32961;51.936;4.788;2023-02-28T04:00:52;103127.69;;;1.92;93.43
47220;BME280;32961;51.936;4.788;2023-02-28T04:03:22;103129.44;;;1.93;93.28
47220;BME280;32961;51.936;4.788;2023-02-28T04:05:52;103124.94;;;1.95;93.26
47220;BME280;32961;51.936;4.788;2023-02-28T04:08:22;103132.94;;;1.97;93.36
47220;BME280;32961;51.936;4.788;2023-02-28T04:10:55;103120.41;;;1.97;93.96
47220;BME280;32961;51.936;4.788;2023-02-28T04:13:23;103125.78;;;1.97;93.96
47220;BME280;32961;51.936;4.788;2023-02-28T04:15:51;103121.31;;;1.98;94.30
47220;BME280;32961;51.936;4.788;2023-02-28T04:18:19;103123.09;;;1.99;93.56
47220;BME280;32961;51.936;4.788;2023-02-28T04:20:47;103129.25;;;2.02;94.12
47220;BME280;32961;51.936;4.788;2023-02-28T04:23:15;103131.00;;;2.03;93.62
47220;BME280;32961;51.936;4.788;2023-02-28T04:25:44;103126.50;;;2.05;94.13
47220;BME280;32961;51.936;4.788;2023-02-28T04:28:11;103137.19;;;2.07;93.39
47220;BME280;32961;51.936;4.788;2023-02-28T04:30:39;103137.22;;;2.05;93.50
47220;BME280;32961;51.936;4.788;2023-02-28T04:33:07;103139.91;;;2.05;93.47
47220;BME280;32961;51.936;4.788;2023-02-28T04:35:35;103135.47;;;2.04;94.12
47220;BME280;32961;51.936;4.788;2023-02-28T04:38:03;103141.69;;;2.06;93.46
47220;BME280;32961;51.936;4.788;2023-02-28T04:40:30;103140.78;;;2.07;93.68
47220;BME280;32961;51.936;4.788;2023-02-28T04:42:59;103134.50;;;2.08;93.89
47220;BME280;32961;51.936;4.788;2023-02-28T04:45:27;103138.97;;;2.08;93.85
47220;BME280;32961;51.936;4.788;2023-02-28T04:47:56;103146.09;;;2.09;93.66
47220;BME280;32961;51.936;4.788;2023-02-28T04:50:24;103148.75;;;2.11;93.90
47220;BME280;32961;51.936;4.788;2023-02-28T04:52:52;103150.50;;;2.12;93.86
47220;BME280;32961;51.936;4.788;2023-02-28T04:55:20;103150.47;;;2.13;94.11
47220;BME280;32961;51.936;4.788;2023-02-28T04:57:48;103154.88;;;2.16;93.12
47220;BME280;32961;51.936;4.788;2023-02-28T05:00:18;103155.69;;;2.19;93.34
47220;BME280;32961;51.936;4.788;2023-02-28T05:02:46;103153.97;;;2.17;94.27
47220;BME280;32961;51.936;4.788;2023-02-28T05:05:13;103155.75;;;2.18;93.88
47220;BME280;32961;51.936;4.788;2023-02-28T05:07:44;103159.34;;;2.17;93.74
47220;BME280;32961;51.936;4.788;2023-02-28T05:10:12;103156.69;;;2.15;93.60
47220;BME280;32961;51.936;4.788;2023-02-28T05:12:40;103154.88;;;2.17;93.94
47220;BME280;32961;51.936;4.788;2023-02-28T05:15:12;103151.28;;;2.18;93.39
47220;BME280;32961;51.936;4.788;2023-02-28T05:17:42;103154.94;;;2.14;93.54
47220;BME280;32961;51.936;4.788;2023-02-28T05:20:11;103155.84;;;2.13;93.28
47220;BME280;32961;51.936;4.788;2023-02-28T05:22:41;103152.25;;;2.14;93.71
47220;BME280;32961;51.936;4.788;2023-02-28T05:25:12;103156.75;;;2.12;93.52
47220;BME280;32961;51.936;4.788;2023-02-28T05:27:41;103160.41;;;2.08;92.02
47220;BME280;32961;51.936;4.788;2023-02-28T05:30:10;103163.19;;;2.05;90.94
47220;BME280;32961;51.936;4.788;2023-02-28T05:32:39;103157.91;;;2.00;90.59
47220;BME280;32961;51.936;4.788;2023-02-28T05:35:11;103160.63;;;1.99;88.58
47220;BME280;32961;51.936;4.788;2023-02-28T05:37:39;103165.03;;;2.01;88.10
47220;BME280;32961;51.936;4.788;2023-02-28T05:40:08;103164.91;;;2.07;87.06
47220;BME280;32961;51.936;4.788;2023-02-28T05:42:37;103166.69;;;2.07;85.31
47220;BME280;32961;51.936;4.788;2023-02-28T05:45:06;103174.91;;;1.99;84.85
47220;BME280;32961;51.936;4.788;2023-02-28T05:47:34;103170.44;;;1.98;84.52
47220;BME280;32961;51.936;4.788;2023-02-28T05:50:03;103168.69;;;1.97;84.24
47220;BME280;32961;51.936;4.788;2023-02-28T05:52:33;103171.38;;;1.97;83.85
47220;BME280;32961;51.936;4.788;2023-02-28T05:55:01;103166.03;;;1.96;83.89
47220;BME280;32961;51.936;4.788;2023-02-28T05:57:29;103170.50;;;1.97;84.03
47220;BME280;32961;51.936;4.788;2023-02-28T05:59:57;103163.34;;;1.96;83.81
47220;BME280;32961;51.936;4.788;2023-02-28T06:02:24;103166.06;;;1.94;83.17
47220;BME280;32961;51.936;4.788;2023-02-28T06:04:52;103158.94;;;1.93;83.63
47220;BME280;32961;51.936;4.788;2023-02-28T06:07:20;103168.81;;;1.91;84.12
47220;BME280;32961;51.936;4.788;2023-02-28T06:09:50;103165.25;;;1.90;83.47
47220;BME280;32961;51.936;4.788;2023-02-28T06:12:18;103164.41;;;1.88;84.34
47220;BME280;32961;51.936;4.788;2023-02-28T06:14:45;103167.25;;;1.81;84.41
47220;BME280;32961;51.936;4.788;2023-02-28T06:17:13;103167.28;;;1.77;85.34
47220;BME280;32961;51.936;4.788;2023-02-28T06:19:41;103170.94;;;1.73;85.92
47220;BME280;32961;51.936;4.788;2023-02-28T06:22:09;103162.13;;;1.68;85.21
47220;BME280;32961;51.936;4.788;2023-02-28T06:24:37;103159.44;;;1.68;85.71
47220;BME280;32961;51.936;4.788;2023-02-28T06:27:06;103160.34;;;1.67;86.21
47220;BME280;32961;51.936;4.788;2023-02-28T06:29:34;103175.66;;;1.60;86.68
47220;BME280;32961;51.936;4.788;2023-02-28T06:32:02;103167.72;;;1.54;87.73
47220;BME280;32961;51.936;4.788;2023-02-28T06:34:30;103176.72;;;1.52;87.17
47220;BME280;32961;51.936;4.788;2023-02-28T06:37:00;103175.88;;;1.50;88.62
47220;BME280;32961;51.936;4.788;2023-02-28T06:39:28;103175.88;;;1.48;88.12
47220;BME280;32961;51.936;4.788;2023-02-28T06:41:56;103179.50;;;1.46;88.30
47220;BME280;32961;51.936;4.788;2023-02-28T06:44:26;103175.09;;;1.43;89.40
47220;BME280;32961;51.936;4.788;2023-02-28T06:46:59;103185.84;;;1.41;90.01
47220;BME280;32961;51.936;4.788;2023-02-28T06:49:28;103176.91;;;1.42;89.56
47220;BME280;32961;51.936;4.788;2023-02-28T06:51:56;103181.41;;;1.39;89.84
47220;BME280;32961;51.936;4.788;2023-02-28T06:54:24;103182.41;;;1.33;90.86
47220;BME280;32961;51.936;4.788;2023-02-28T06:56:52;103186.88;;;1.33;91.03
47220;BME280;32961;51.936;4.788;2023-02-28T06:59:20;103192.25;;;1.33;90.72
47220;BME280;32961;51.936;4.788;2023-02-28T07:01:50;103192.25;;;1.33;91.76
47220;BME280;32961;51.936;4.788;2023-02-28T07:04:18;103196.69;;;1.32;91.15
47220;BME280;32961;51.936;4.788;2023-02-28T07:06:46;103186.00;;;1.32;92.19
47220;BME280;32961;51.936;4.788;2023-02-28T07:09:14;103191.34;;;1.32;91.36
47220;BME280;32961;51.936;4.788;2023-02-28T07:11:41;103194.09;;;1.27;92.40
47220;BME280;32961;51.936;4.788;2023-02-28T07:14:10;103195.88;;;1.28;92.78
47220;BME280;32961;51.936;4.788;2023-02-28T07:16:38;103188.69;;;1.31;92.19
47220;BME280;32961;51.936;4.788;2023-02-28T07:19:07;103192.25;;;1.33;92.66
47220;BME280;32961;51.936;4.788;2023-02-28T07:21:34;103188.66;;;1.32;93.05
47220;BME280;32961;51.936;4.788;2023-02-28T07:24:03;103192.22;;;1.34;92.80
47220;BME280;32961;51.936;4.788;2023-02-28T07:26:31;103177.94;;;1.32;94.06
47220;BME280;32961;51.936;4.788;2023-02-28T07:29:00;103185.25;;;1.22;95.41
47220;BME280;32961;51.936;4.788;2023-02-28T07:31:28;103173.72;;;1.20;95.74
47220;BME280;32961;51.936;4.788;2023-02-28T07:33:56;103179.88;;;1.25;95.62
47220;BME280;32961;51.936;4.788;2023-02-28T07:36:26;103185.22;;;1.25;95.99
47220;BME280;32961;51.936;4.788;2023-02-28T07:38:54;103184.31;;;1.26;95.95
47220;BME280;32961;51.936;4.788;2023-02-28T07:41:22;103185.16;;;1.30;97.03
47220;BME280;32961;51.936;4.788;2023-02-28T07:43:54;103193.16;;;1.32;96.83
47220;BME280;32961;51.936;4.788;2023-02-28T07:46:23;103193.19;;;1.30;96.72
47220;BME280;32961;51.936;4.788;2023-02-28T07:48:53;103187.75;;;1.33;97.00
47220;BME280;32961;51.936;4.788;2023-02-28T07:51:22;103187.75;;;1.33;97.16
47220;BME280;32961;51.936;4.788;2023-02-28T07:53:51;103177.13;;;1.30;97.71
47220;BME280;32961;51.936;4.788;2023-02-28T07:56:19;103178.03;;;1.29;97.66
47220;BME280;32961;51.936;4.788;2023-02-28T07:58:46;103177.19;;;1.25;98.56
47220;BME280;32961;51.936;4.788;2023-02-28T08:01:14;103186.25;;;1.18;99.42
47220;BME280;32961;51.936;4.788;2023-02-28T08:03:42;103188.03;;;1.16;99.70
47220;BME280;32961;51.936;4.788;2023-02-28T08:06:16;103203.19;;;1.19;100.00
47220;BME280;32961;51.936;4.788;2023-02-28T08:08:44;103191.53;;;1.23;99.37
47220;BME280;32961;51.936;4.788;2023-02-28T08:11:13;103205.84;;;1.20;100.00
47220;BME280;32961;51.936;4.788;2023-02-28T08:13:41;103204.91;;;1.23;100.00
47220;BME280;32961;51.936;4.788;2023-02-28T08:16:11;103199.44;;;1.27;98.88
47220;BME280;32961;51.936;4.788;2023-02-28T08:18:41;103201.25;;;1.27;99.84
47220;BME280;32961;51.936;4.788;2023-02-28T08:21:10;103207.59;;;1.23;99.33
47220;BME280;32961;51.936;4.788;2023-02-28T08:23:38;103198.72;;;1.19;100.00
47220;BME280;32961;51.936;4.788;2023-02-28T08:26:06;103208.50;;;1.22;100.00
47220;BME280;32961;51.936;4.788;2023-02-28T08:28:35;103212.88;;;1.26;100.00
47220;BME280;32961;51.936;4.788;2023-02-28T08:31:07;103209.38;;;1.22;99.96
47220;BME280;32961;51.936;4.788;2023-02-28T08:33:36;103208.53;;;1.19;100.00
47220;BME280;32961;51.936;4.788;2023-02-28T08:36:06;103204.06;;;1.19;100.00
47220;BME280;32961;51.936;4.788;2023-02-28T08:38:34;103199.66;;;1.17;100.00
47220;BME280;32961;51.936;4.788;2023-02-28T08:41:03;103195.97;;;1.22;100.00
47220;BME280;32961;51.936;4.788;2023-02-28T08:43:32;103203.00;;;1.30;100.00
47220;BME280;32961;51.936;4.788;2023-02-28T08:46:02;103204.75;;;1.32;100.00
47220;BME280;32961;51.936;4.788;2023-02-28T08:48:31;103213.59;;;1.36;100.00
47220;BME280;32961;51.936;4.788;2023-02-28T08:51:02;103203.69;;;1.42;100.00
47220;BME280;32961;51.936;4.788;2023-02-28T08:53:33;103207.19;;;1.44;100.00
47220;BME280;32961;51.936;4.788;2023-02-28T08:56:04;103201.84;;;1.44;100.00
47220;BME280;32961;51.936;4.788;2023-02-28T08:58:33;103204.44;;;1.49;100.00
47220;BME280;32961;51.936;4.788;2023-02-28T09:01:07;103200.81;;;1.52;100.00
47220;BME280;32961;51.936;4.788;2023-02-28T09:03:35;103198.06;;;1.56;100.00
47220;BME280;32961;51.936;4.788;2023-02-28T09:06:04;103206.97;;;1.57;100.00
47220;BME280;32961;51.936;4.788;2023-02-28T09:08:32;103198.97;;;1.55;100.00
47220;BME280;32961;51.936;4.788;2023-02-28T09:11:00;103206.09;;;1.56;100.00
47220;BME280;32961;51.936;4.788;2023-02-28T09:13:29;103214.09;;;1.59;100.00
47220;BME280;32961;51.936;4.788;2023-02-28T09:15:59;103214.94;;;1.63;100.00
47220;BME280;32961;51.936;4.788;2023-02-28T09:18:28;103214.78;;;1.71;100.00
47220;BME280;32961;51.936;4.788;2023-02-28T09:20:57;103214.81;;;1.69;100.00
47220;BME280;32961;51.936;4.788;2023-02-28T09:23:25;103221.00;;;1.71;100.00
47220;BME280;32961;51.936;4.788;2023-02-28T09:25:54;103210.19;;;1.77;100.00
47220;BME280;32961;51.936;4.788;2023-02-28T09:28:22;103203.88;;;1.80;100.00
47220;BME280;32961;51.936;4.788;2023-02-28T09:30:51;103204.69;;;1.84;100.00
47220;BME280;32961;51.936;4.788;2023-02-28T09:33:20;103201.94;;;1.88;100.00
47220;BME280;32961;51.936;4.788;2023-02-28T09:35:50;103207.28;;;1.88;100.00
47220;BME280;32961;51.936;4.788;2023-02-28T09:38:19;103217.97;;;1.90;100.00
47220;BME280;32961;51.936;4.788;2023-02-28T09:40:49;103225.97;;;1.93;100.00
47220;BME280;32961;51.936;4.788;2023-02-28T09:43:20;103225.91;;;1.96;100.00
47220;BME280;32961;51.936;4.788;2023-02-28T09:45:52;103222.22;;;2.02;100.00
47220;BME280;32961;51.936;4.788;2023-02-28T09:48:28;103223.00;;;2.08;100.00
47220;BME280;32961;51.936;4.788;2023-02-28T09:51:02;103213.06;;;2.12;100.00
47220;BME280;32961;51.936;4.788;2023-02-28T09:53:32;103213.06;;;2.14;100.00
47220;BME280;32961;51.936;4.788;2023-02-28T09:56:04;103218.44;;;2.14;100.00
47220;BME280;32961;51.936;4.788;2023-02-28T09:58:37;103214.75;;;2.18;100.00
47220;BME280;32961;51.936;4.788;2023-02-28T10:01:12;103221.81;;;2.22;99.82
47220;BME280;32961;51.936;4.788;2023-02-28T10:03:55;103215.72;;;2.15;97.53
47220;BME280;32961;51.936;4.788;2023-02-28T10:06:29;103216.53;;;2.19;96.59
47220;BME280;32961;51.936;4.788;2023-02-28T10:09:03;103216.41;;;2.25;93.94
47220;BME280;32961;51.936;4.788;2023-02-28T10:11:33;103214.38;;;2.36;93.74
47220;BME280;32961;51.936;4.788;2023-02-28T10:14:10;103210.47;;;2.51;91.39
47220;BME280;32961;51.936;4.788;2023-02-28T10:16:40;103212.13;;;2.57;88.02
47220;BME280;32961;51.936;4.788;2023-02-28T10:19:15;103218.25;;;2.64;85.32
47220;BME280;32961;51.936;4.788;2023-02-28T10:21:48;103209.94;;;2.75;84.04
47220;BME280;32961;51.936;4.788;2023-02-28T10:24:22;103209.69;;;2.85;81.54
47220;BME280;32961;51.936;4.788;2023-02-28T10:26:52;103204.19;;;2.92;77.97
47220;BME280;32961;51.936;4.788;2023-02-28T10:29:21;103203.25;;;2.93;74.03
47220;BME280;32961;51.936;4.788;2023-02-28T10:31:49;103196.88;;;2.98;71.83
47220;BME280;32961;51.936;4.788;2023-02-28T10:34:17;103207.41;;;3.06;70.56
47220;BME280;32961;51.936;4.788;2023-02-28T10:36:46;103195.53;;;3.16;68.45
47220;BME280;32961;51.936;4.788;2023-02-28T10:39:37;103204.16;;;3.29;63.49
47220;BME280;32961;51.936;4.788;2023-02-28T10:42:19;103194.84;;;3.43;63.35
47220;BME280;32961;51.936;4.788;2023-02-28T10:44:47;103192.44;;;3.66;60.64
47220;BME280;32961;51.936;4.788;2023-02-28T10:47:17;103177.84;;;3.75;60.71
47220;BME280;32961;51.936;4.788;2023-02-28T10:49:49;103179.31;;;3.87;60.92
47220;BME280;32961;51.936;4.788;2023-02-28T10:52:36;103183.69;;;3.91;58.45
47220;BME280;32961;51.936;4.788;2023-02-28T10:55:18;103187.22;;;3.93;55.65
47220;BME280;32961;51.936;4.788;2023-02-28T10:57:47;103175.66;;;3.90;55.84
47220;BME280;32961;51.936;4.788;2023-02-28T11:00:17;103178.22;;;3.94;55.93
47220;BME280;32961;51.936;4.788;2023-02-28T11:02:45;103170.94;;;3.98;57.01
47220;BME280;32961;51.936;4.788;2023-02-28T11:05:24;103171.78;;;4.00;52.56
47220;BME280;32961;51.936;4.788;2023-02-28T11:07:54;103169.00;;;4.03;53.49
47220;BME280;32961;51.936;4.788;2023-02-28T11:10:26;103170.59;;;4.10;54.60
47220;BME280;32961;51.936;4.788;2023-02-28T11:12:56;103175.66;;;4.21;51.94
47220;BME280;32961;51.936;4.788;2023-02-28T11:15:28;103163.66;;;4.33;52.92
47220;BME280;32961;51.936;4.788;2023-02-28T11:17:57;103162.28;;;4.48;52.70
47220;BME280;32961;51.936;4.788;2023-02-28T11:20:28;103167.41;;;4.56;52.59
47220;BME280;32961;51.936;4.788;2023-02-28T11:23:01;103161.41;;;4.76;54.38
47220;BME280;32961;51.936;4.788;2023-02-28T11:25:32;103156.09;;;5.01;51.87
47220;BME280;32961;51.936;4.788;2023-02-28T11:28:03;103156.34;;;5.20;49.43
47220;BME280;32961;51.936;4.788;2023-02-28T11:30:35;103149.75;;;5.29;49.92
47220;BME280;32961;51.936;4.788;2023-02-28T11:33:22;103149.00;;;5.51;49.69
47220;BME280;32961;51.936;4.788;2023-02-28T11:35:51;103145.03;;;5.61;49.31
47220;BME280;32961;51.936;4.788;2023-02-28T11:38:21;103146.41;;;5.73;47.12
47220;BME280;32961;51.936;4.788;2023-02-28T11:41:02;103143.94;;;5.67;47.79
47220;BME280;32961;51.936;4.788;2023-02-28T11:43:44;103143.81;;;5.70;48.44
47220;BME280;32961;51.936;4.788;2023-02-28T11:46:22;103143.75;;;5.71;47.19
47220;BME280;32961;51.936;4.788;2023-02-28T11:48:58;103142.59;;;5.78;46.26
47220;BME280;32961;51.936;4.788;2023-02-28T11:51:33;103139.97;;;5.77;45.40
47220;BME280;32961;51.936;4.788;2023-02-28T11:54:23;103138.41;;;5.70;43.96
47220;BME280;32961;51.936;4.788;2023-02-28T11:56:57;103144.53;;;5.75;44.43
47220;BME280;32961;51.936;4.788;2023-02-28T11:59:48;103123.91;;;5.74;46.17
47220;BME280;32961;51.936;4.788;2023-02-28T12:02:24;103125.59;;;5.76;43.66
47220;BME280;32961;51.936;4.788;2023-02-28T12:05:12;103126.25;;;5.83;45.54
47220;BME280;32961;51.936;4.788;2023-02-28T12:07:54;103130.38;;;5.93;46.47
47220;BME280;32961;51.936;4.788;2023-02-28T12:10:28;103118.47;;;5.99;45.05
47220;BME280;32961;51.936;4.788;2023-02-28T12:13:06;103118.38;;;6.02;46.37
47220;BME280;32961;51.936;4.788;2023-02-28T12:15:52;103109.09;;;6.09;45.46
47220;BME280;32961;51.936;4.788;2023-02-28T12:18:48;103107.97;;;6.15;43.48
47220;BME280;32961;51.936;4.788;2023-02-28T12:21:27;103113.25;;;6.18;45.19
47220;BME280;32961;51.936;4.788;2023-02-28T12:24:14;103111.50;;;6.17;43.05
47220;BME280;32961;51.936;4.788;2023-02-28T12:26:46;103113.25;;;6.18;45.09
47220;BME280;32961;51.936;4.788;2023-02-28T12:29:19;103116.81;;;6.19;44.25
47220;BME280;32961;51.936;4.788;2023-02-28T12:31:50;103118.53;;;6.21;44.05
47220;BME280;32961;51.936;4.788;2023-02-28T12:34:24;103117.41;;;6.27;44.14
47220;BME280;32961;51.936;4.788;2023-02-28T12:36:54;103113.19;;;6.20;41.86
47220;BME280;32961;51.936;4.788;2023-02-28T12:39:27;103111.03;;;6.06;40.63
47220;BME280;32961;51.936;4.788;2023-02-28T12:42:10;103120.13;;;6.03;43.09
47220;BME280;32961;51.936;4.788;2023-02-28T12:44:44;103107.03;;;6.16;42.99
47220;BME280;32961;51.936;4.788;2023-02-28T12:47:15;103109.88;;;6.13;42.22
47220;BME280;32961;51.936;4.788;2023-02-28T12:49:47;103099.06;;;6.13;43.63
47220;BME280;32961;51.936;4.788;2023-02-28T12:52:20;103099.78;;;6.17;42.37
47220;BME280;32961;51.936;4.788;2023-02-28T12:54:52;103094.22;;;6.21;42.81
47220;BME280;32961;51.936;4.788;2023-02-28T12:57:31;103097.81;;;6.22;42.02
47220;BME280;32961;51.936;4.788;2023-02-28T13:00:08;103090.53;;;6.24;40.52
47220;BME280;32961;51.936;4.788;2023-02-28T13:02:55;103083.31;;;6.24;40.49
47220;BME280;32961;51.936;4.788;2023-02-28T13:09:01;103081.63;;;6.22;41.44
47220;BME280;32961;51.936;4.788;2023-02-28T13:11:32;103084.06;;;6.28;41.55
47220;BME280;32961;51.936;4.788;2023-02-28T13:14:05;103083.31;;;6.24;40.23
47220;BME280;32961;51.936;4.788;2023-02-28T13:16:56;103073.81;;;6.14;41.19
47220;BME280;32961;51.936;4.788;2023-02-28T13:19:27;103071.84;;;6.19;42.77
47220;BME280;32961;51.936;4.788;2023-02-28T13:21:56;103073.31;;;6.26;41.50
47220;BME280;32961;51.936;4.788;2023-02-28T13:24:46;103074.97;;;6.07;41.13
47220;BME280;32961;51.936;4.788;2023-02-28T13:27:37;103060.44;;;6.11;39.75
47220;BME280;32961;51.936;4.788;2023-02-28T13:33:29;103060.13;;;6.19;41.58
47220;BME280;32961;51.936;4.788;2023-02-28T13:36:25;103050.78;;;6.28;41.84